Rising City, Nebraska
Current Conditions -  °F | °C
As of 3:35 PM on Wednesday 17 Dec 2014 (Local Time) from KOLU Reporting Station
Overcast Overcast  
Wind Chill: 18°   Ceiling: 7000
Heat Index: 25°   Visibility: 10mi
Dew Point: 12°   Wind: 6mph
Humidity: 59%   Direction: 90°E
Pressure: 30.24"   Gusts: NA
Location:  41.2°N, 97.3°W
Report Text: KOLU 172135Z AUTO 09005KT 10SM OVC070 M04/M11 A3024 RMK AO1
Loading
Personal Weather Stations






























Interactive Weather Map New forecast layout! Learn more

10-Day Weather Forecast

Advertisements
Track Severe Weather on mobile